createdAt,value
2018-07-01T00:00:57.051Z,19.47
2018-07-01T00:01:57.014Z,19.50
2018-07-01T00:02:57.009Z,19.46
2018-07-01T00:03:56.987Z,19.51
2018-07-01T00:04:56.939Z,19.33
2018-07-01T00:05:56.916Z,19.39
2018-07-01T00:06:56.923Z,19.42
2018-07-01T00:07:56.898Z,19.35
2018-07-01T00:08:56.852Z,19.35
2018-07-01T00:09:56.855Z,19.25
2018-07-01T00:10:56.836Z,19.23
2018-07-01T00:11:56.800Z,19.24
2018-07-01T00:12:56.789Z,19.21
2018-07-01T00:13:56.751Z,19.31
2018-07-01T00:14:56.747Z,19.20
2018-07-01T00:15:56.726Z,19.21
2018-07-01T00:16:56.706Z,19.21
2018-07-01T00:17:56.681Z,19.28
2018-07-01T00:18:56.665Z,19.21
2018-07-01T00:19:56.625Z,19.24
2018-07-01T00:20:56.621Z,19.24
2018-07-01T00:21:56.572Z,19.21
2018-07-01T00:22:56.553Z,19.11
2018-07-01T00:23:56.523Z,19.18
2018-07-01T00:24:56.505Z,19.20
2018-07-01T00:25:56.480Z,19.11
2018-07-01T00:26:56.490Z,19.14
2018-07-01T00:27:56.468Z,19.13
2018-07-01T00:28:56.419Z,19.10
2018-07-01T00:29:56.423Z,19.13
2018-07-01T00:30:56.375Z,19.02
2018-07-01T00:31:56.384Z,18.97
2018-07-01T00:32:56.336Z,18.92
2018-07-01T00:33:56.315Z,18.86
2018-07-01T00:34:56.291Z,18.86
2018-07-01T00:35:56.271Z,18.94
2018-07-01T00:36:56.242Z,18.92
2018-07-01T00:37:56.226Z,18.91
2018-07-01T00:38:56.203Z,18.91
2018-07-01T00:39:56.183Z,18.90
2018-07-01T00:40:56.157Z,18.83
2018-07-01T00:41:56.131Z,18.90
2018-07-01T00:42:56.117Z,18.86
2018-07-01T00:43:56.095Z,18.83
2018-07-01T00:44:56.103Z,18.91
2018-07-01T00:45:56.051Z,18.97
2018-07-01T00:46:56.036Z,18.95
2018-07-01T00:47:56.037Z,18.97
2018-07-01T00:48:55.996Z,18.97
2018-07-01T00:49:55.962Z,19.06
2018-07-01T00:50:55.945Z,18.99
2018-07-01T00:51:55.916Z,18.92
2018-07-01T00:52:55.905Z,18.99
2018-07-01T00:53:55.905Z,18.97
2018-07-01T00:54:55.855Z,19.01
2018-07-01T00:55:55.831Z,19.02
2018-07-01T00:56:55.814Z,18.98
2018-07-01T00:57:55.814Z,18.95
2018-07-01T00:58:55.793Z,18.97
2018-07-01T00:59:55.773Z,19.02
2018-07-01T01:00:55.721Z,18.94
2018-07-01T01:01:55.702Z,18.98
2018-07-01T01:02:55.710Z,18.92
2018-07-01T01:03:55.655Z,18.90
2018-07-01T01:04:55.645Z,18.92
2018-07-01T01:05:55.627Z,18.87
2018-07-01T01:06:55.593Z,18.94
2018-07-01T01:07:55.595Z,18.94
2018-07-01T01:08:55.559Z,18.90
2018-07-01T01:09:55.551Z,18.87
2018-07-01T01:10:55.504Z,18.91
2018-07-01T01:11:55.508Z,18.95
2018-07-01T01:12:55.458Z,18.99
2018-07-01T01:13:55.463Z,19.02
2018-07-01T01:14:55.416Z,18.97
2018-07-01T01:15:55.422Z,18.95
2018-07-01T01:16:55.398Z,18.99
2018-07-01T01:17:55.379Z,18.99
2018-07-01T01:18:55.330Z,18.97
2018-07-01T01:19:55.305Z,18.97
2018-07-01T01:20:55.312Z,18.95
2018-07-01T01:21:55.348Z,18.97
2018-07-01T01:22:55.244Z,18.98
2018-07-01T01:23:55.246Z,18.87
2018-07-01T01:24:55.224Z,18.94
2018-07-01T01:25:55.201Z,18.87
2018-07-01T01:26:55.155Z,18.87
2018-07-01T01:27:55.164Z,18.86
2018-07-01T01:28:55.135Z,18.77
2018-07-01T01:29:55.115Z,18.72
2018-07-01T01:30:55.067Z,18.62
2018-07-01T01:31:55.045Z,18.65
2018-07-01T01:32:55.046Z,18.57
2018-07-01T01:33:55.020Z,18.57
2018-07-01T01:34:54.975Z,18.57
2018-07-01T01:35:54.959Z,18.59
2018-07-01T01:36:54.941Z,18.50
2018-07-01T01:37:54.940Z,18.49
2018-07-01T01:38:54.889Z,18.57
2018-07-01T01:39:54.865Z,18.47
2018-07-01T01:40:54.850Z,18.55
2018-07-01T01:41:54.825Z,18.57
2018-07-01T01:42:54.797Z,18.55
2018-07-01T01:43:54.783Z,18.59
2018-07-01T01:44:54.768Z,18.47
2018-07-01T01:45:54.769Z,18.44
2018-07-01T01:46:54.715Z,18.55
2018-07-01T01:47:54.710Z,18.49
2018-07-01T01:48:54.692Z,18.55
2018-07-01T01:49:54.650Z,18.49
2018-07-01T01:50:54.636Z,18.46
2018-07-01T01:51:54.615Z,18.47
2018-07-01T01:52:54.581Z,18.37
2018-07-01T01:53:54.556Z,18.36
2018-07-01T01:54:54.536Z,18.40
2018-07-01T01:55:54.507Z,18.42
2018-07-01T01:56:54.491Z,18.37
2018-07-01T01:57:54.468Z,18.39
2018-07-01T01:58:54.446Z,18.40
2018-07-01T01:59:54.435Z,18.29
2018-07-01T02:00:54.399Z,18.24
2018-07-01T02:01:54.378Z,18.27
2018-07-01T02:02:54.364Z,18.25
2018-07-01T02:03:54.365Z,18.25
2018-07-01T02:04:54.340Z,18.22
2018-07-01T02:05:54.316Z,18.15
2018-07-01T02:06:54.295Z,18.15
2018-07-01T02:07:54.247Z,18.21
2018-07-01T02:08:54.232Z,18.10
2018-07-01T02:09:54.205Z,18.07
2018-07-01T02:10:54.182Z,18.03
2018-07-01T02:11:54.185Z,18.04
2018-07-01T02:12:54.131Z,18.02
2018-07-01T02:13:54.124Z,18.04
2018-07-01T02:14:54.087Z,18.03
2018-07-01T02:15:54.076Z,18.06
2018-07-01T02:16:54.073Z,18.06
2018-07-01T02:17:54.018Z,18.03
2018-07-01T02:18:54.002Z,17.92
2018-07-01T02:19:53.977Z,17.95
2018-07-01T02:20:53.958Z,17.92
2018-07-01T02:21:53.932Z,17.94
2018-07-01T02:22:53.937Z,17.89
2018-07-01T02:23:53.888Z,17.88
2018-07-01T02:24:53.867Z,17.87
2018-07-01T02:25:53.843Z,17.84
2018-07-01T02:26:53.830Z,17.84
2018-07-01T02:27:53.801Z,17.87
2018-07-01T02:28:53.780Z,17.87
2018-07-01T02:29:53.760Z,17.91
2018-07-01T02:30:53.748Z,17.76
2018-07-01T02:31:53.712Z,17.85
2018-07-01T02:32:53.701Z,17.85
2018-07-01T02:33:53.669Z,17.85
2018-07-01T02:34:53.649Z,17.85
2018-07-01T02:35:53.621Z,17.84
2018-07-01T02:36:53.599Z,17.79
2018-07-01T02:37:53.583Z,17.84
2018-07-01T02:38:53.568Z,17.76
2018-07-01T02:39:53.543Z,17.76
2018-07-01T02:40:53.521Z,17.69
2018-07-01T02:41:53.516Z,17.69
2018-07-01T02:42:53.478Z,17.67
2018-07-01T02:43:53.455Z,17.69
2018-07-01T02:44:53.450Z,17.59
2018-07-01T02:45:53.426Z,17.53
2018-07-01T02:46:53.380Z,17.62
2018-07-01T02:47:53.354Z,17.66
2018-07-01T02:48:53.357Z,17.62
2018-07-01T02:49:53.316Z,17.59
2018-07-01T02:50:53.322Z,17.57
2018-07-01T02:51:53.263Z,17.54
2018-07-01T02:52:53.267Z,17.55
2018-07-01T02:53:53.291Z,17.50
2018-07-01T02:54:53.228Z,17.48
2018-07-01T02:55:53.175Z,17.54
2018-07-01T02:56:53.151Z,17.44
2018-07-01T02:57:53.133Z,17.48
2018-07-01T02:58:53.108Z,17.54
2018-07-01T02:59:53.110Z,17.44
2018-07-01T03:00:53.065Z,17.51
2018-07-01T03:01:53.045Z,17.46
2018-07-01T03:02:53.041Z,17.48
2018-07-01T03:03:53.002Z,17.41
2018-07-01T03:04:52.975Z,17.40
2018-07-01T03:05:52.952Z,17.38
2018-07-01T03:06:52.951Z,17.35
2018-07-01T03:07:52.932Z,17.36
2018-07-01T03:08:52.908Z,17.44
2018-07-01T03:09:52.883Z,17.43
2018-07-01T03:10:52.844Z,17.36
2018-07-01T03:11:52.814Z,17.36
2018-07-01T03:12:52.801Z,17.40
2018-07-01T03:13:52.773Z,17.35
2018-07-01T03:14:52.749Z,17.36
2018-07-01T03:15:52.724Z,17.38
2018-07-01T03:16:52.703Z,17.41
2018-07-01T03:17:52.675Z,17.38
2018-07-01T03:18:52.658Z,17.43
2018-07-01T03:19:52.647Z,17.41
2018-07-01T03:20:52.609Z,17.41
2018-07-01T03:21:52.612Z,17.41
2018-07-01T03:22:52.597Z,17.41
2018-07-01T03:23:52.568Z,17.40
2018-07-01T03:24:52.536Z,17.44
2018-07-01T03:25:52.496Z,17.29
2018-07-01T03:26:52.475Z,17.29
2018-07-01T03:27:52.448Z,17.38
2018-07-01T03:28:52.453Z,17.32
2018-07-01T03:29:52.430Z,17.25
2018-07-01T03:30:52.385Z,17.32
2018-07-01T03:31:52.361Z,17.28
2018-07-01T03:32:52.345Z,17.35
2018-07-01T03:33:52.326Z,17.32
2018-07-01T03:34:52.300Z,17.32
2018-07-01T03:35:52.284Z,17.25
2018-07-01T03:36:52.248Z,17.32
2018-07-01T03:37:52.230Z,17.25
2018-07-01T03:38:52.232Z,17.26
2018-07-01T03:39:52.181Z,17.28
2018-07-01T03:40:52.183Z,17.25
2018-07-01T03:41:52.131Z,17.28
2018-07-01T03:42:52.111Z,17.32
2018-07-01T03:43:52.120Z,17.40
2018-07-01T03:44:52.078Z,17.30
2018-07-01T03:45:52.075Z,17.36
2018-07-01T03:46:52.045Z,17.25
2018-07-01T03:47:52.007Z,17.32
2018-07-01T03:48:51.975Z,17.29
2018-07-01T03:49:51.950Z,17.30
2018-07-01T03:50:51.931Z,17.38
2018-07-01T03:51:51.931Z,17.22
2018-07-01T03:52:51.883Z,17.32
2018-07-01T03:53:51.864Z,17.26
2018-07-01T03:54:51.839Z,17.29
2018-07-01T03:55:51.843Z,17.15
2018-07-01T03:56:51.816Z,17.15
2018-07-01T03:57:51.774Z,17.23
2018-07-01T03:58:51.748Z,17.14
2018-07-01T03:59:51.731Z,17.18
2018-07-01T04:00:51.729Z,17.15
2018-07-01T04:01:51.707Z,17.22
2018-07-01T04:02:51.681Z,17.22
2018-07-01T04:03:51.633Z,17.15
2018-07-01T04:04:51.609Z,17.11
2018-07-01T04:05:51.590Z,17.04
2018-07-01T04:06:51.566Z,17.00
2018-07-01T04:07:51.543Z,17.08
2018-07-01T04:08:51.527Z,16.99
2018-07-01T04:09:51.497Z,16.99
2018-07-01T04:10:51.503Z,17.00
2018-07-01T04:11:51.448Z,16.90
2018-07-01T04:12:51.431Z,16.93
2018-07-01T04:13:51.431Z,16.86
2018-07-01T04:14:51.384Z,16.81
2018-07-01T04:15:51.367Z,16.77
2018-07-01T04:16:51.346Z,16.75
2018-07-01T04:17:51.317Z,16.77
2018-07-01T04:18:51.317Z,16.73
2018-07-01T04:19:51.271Z,16.67
2018-07-01T04:20:51.245Z,16.67
2018-07-01T04:21:51.221Z,16.59
2018-07-01T04:22:51.199Z,16.62
2018-07-01T04:23:51.208Z,16.52
2018-07-01T04:24:51.154Z,16.52
2018-07-01T04:25:51.158Z,16.56
2018-07-01T04:26:51.123Z,16.49
2018-07-01T04:27:51.110Z,16.42
2018-07-01T04:28:51.072Z,16.40
2018-07-01T04:29:51.037Z,16.44
2018-07-01T04:30:51.030Z,16.31
2018-07-01T04:31:50.996Z,16.38
2018-07-01T04:32:50.982Z,16.30
2018-07-01T04:33:50.944Z,16.38
2018-07-01T04:34:50.921Z,16.40
2018-07-01T04:35:50.927Z,16.40
2018-07-01T04:36:50.906Z,16.48
2018-07-01T04:37:50.869Z,16.37
2018-07-01T04:38:50.830Z,16.30
2018-07-01T04:39:50.825Z,16.40
2018-07-01T04:40:50.782Z,16.35
2018-07-01T04:41:50.764Z,16.34
2018-07-01T04:42:50.767Z,16.34
2018-07-01T04:43:50.714Z,16.33
2018-07-01T04:44:50.723Z,16.40
2018-07-01T04:45:50.695Z,16.34
2018-07-01T04:46:50.645Z,16.37
2018-07-01T04:47:50.626Z,16.35
2018-07-01T04:48:50.623Z,16.33
2018-07-01T04:49:50.601Z,16.38
2018-07-01T04:50:50.560Z,16.48
2018-07-01T04:51:50.541Z,16.50
2018-07-01T04:52:50.505Z,16.49
2018-07-01T04:53:50.485Z,16.49
2018-07-01T04:54:50.492Z,16.42
2018-07-01T04:55:50.467Z,16.35
2018-07-01T04:56:50.440Z,16.27
2018-07-01T04:57:50.387Z,16.42
2018-07-01T04:58:50.381Z,16.48
2018-07-01T04:59:50.372Z,16.50
2018-07-01T05:00:50.345Z,16.44
2018-07-01T05:01:50.317Z,16.49
2018-07-01T05:02:50.277Z,16.48
2018-07-01T05:03:50.254Z,16.42
2018-07-01T05:04:50.255Z,16.45
2018-07-01T05:05:50.209Z,16.48
2018-07-01T05:06:50.185Z,16.45
2018-07-01T05:07:50.160Z,16.41
2018-07-01T05:08:50.135Z,16.44
2018-07-01T05:09:50.143Z,16.35
2018-07-01T05:10:50.092Z,16.37
2018-07-01T05:11:50.100Z,16.33
2018-07-01T05:12:50.070Z,16.41
2018-07-01T05:13:50.032Z,16.48
2018-07-01T05:14:50.024Z,16.38
2018-07-01T05:15:50.006Z,16.41
2018-07-01T05:16:49.978Z,16.38
2018-07-01T05:17:49.933Z,16.31
2018-07-01T05:18:49.913Z,16.27
2018-07-01T05:19:49.916Z,16.34
2018-07-01T05:20:49.862Z,16.31
2018-07-01T05:21:49.836Z,16.23
2018-07-01T05:22:49.841Z,16.20
2018-07-01T05:23:49.799Z,16.30
2018-07-01T05:24:49.797Z,16.22
2018-07-01T05:25:49.749Z,16.23
2018-07-01T05:26:49.749Z,16.22
2018-07-01T05:27:49.706Z,16.16
2018-07-01T05:28:49.681Z,16.27
2018-07-01T05:29:49.674Z,16.27
2018-07-01T05:30:49.633Z,16.18
2018-07-01T05:31:49.610Z,16.22
2018-07-01T05:32:49.610Z,16.20
2018-07-01T05:33:49.680Z,16.16
2018-07-01T05:34:49.544Z,16.16
2018-07-01T05:35:49.521Z,16.09
2018-07-01T05:36:49.493Z,16.12
2018-07-01T05:37:49.492Z,16.09
2018-07-01T05:38:49.448Z,16.09
2018-07-01T05:39:49.448Z,16.11
2018-07-01T05:40:49.429Z,16.12
2018-07-01T05:41:49.376Z,16.00
2018-07-01T05:42:49.351Z,16.15
2018-07-01T05:43:49.358Z,16.11
2018-07-01T05:44:49.323Z,16.12
2018-07-01T05:45:49.280Z,16.11
2018-07-01T05:46:49.270Z,16.14
2018-07-01T05:47:49.260Z,16.11
2018-07-01T05:48:49.241Z,16.11
2018-07-01T05:49:49.192Z,16.01
2018-07-01T05:50:49.181Z,15.96
2018-07-01T05:51:49.146Z,16.00
2018-07-01T05:52:49.120Z,16.01
2018-07-01T05:53:49.111Z,15.96
2018-07-01T05:54:49.098Z,15.84
2018-07-01T05:55:49.043Z,15.85
2018-07-01T05:56:49.041Z,15.89
2018-07-01T05:57:49.035Z,15.84
2018-07-01T05:58:49.003Z,15.85
2018-07-01T05:59:48.956Z,15.85
2018-07-01T06:00:48.946Z,15.79
2018-07-01T06:01:48.937Z,15.84
2018-07-01T06:02:48.916Z,15.79
2018-07-01T06:03:48.869Z,15.81
2018-07-01T06:04:48.864Z,15.81
2018-07-01T06:05:48.815Z,15.81
2018-07-01T06:06:48.819Z,15.82
2018-07-01T06:07:48.794Z,15.85
2018-07-01T06:08:48.825Z,15.78
2018-07-01T06:09:48.735Z,15.84
2018-07-01T06:10:48.726Z,15.82
2018-07-01T06:11:48.676Z,15.84
2018-07-01T06:12:48.654Z,15.86
2018-07-01T06:13:48.654Z,15.89
2018-07-01T06:14:48.605Z,15.81
2018-07-01T06:15:48.582Z,15.82
2018-07-01T06:16:48.628Z,15.79
2018-07-01T06:17:48.528Z,15.81
2018-07-01T06:18:48.542Z,15.81
2018-07-01T06:19:48.504Z,15.89
2018-07-01T06:20:48.466Z,15.86
2018-07-01T06:21:48.452Z,15.89
2018-07-01T06:22:48.419Z,15.86
2018-07-01T06:23:48.395Z,15.81
2018-07-01T06:24:48.380Z,15.82
2018-07-01T06:25:48.376Z,15.78
2018-07-01T06:26:48.323Z,15.82
2018-07-01T06:27:48.307Z,15.79
2018-07-01T06:28:48.305Z,15.79
2018-07-01T06:29:48.252Z,15.84
2018-07-01T06:30:48.257Z,15.85
2018-07-01T06:31:48.209Z,15.84
2018-07-01T06:32:48.236Z,15.82
2018-07-01T06:33:48.186Z,15.88
2018-07-01T06:34:48.138Z,15.89
2018-07-01T06:35:48.109Z,15.86
2018-07-01T06:36:48.117Z,15.89
2018-07-01T06:37:48.074Z,15.89
2018-07-01T06:38:48.038Z,15.88
2018-07-01T06:39:48.035Z,15.93
2018-07-01T06:40:47.992Z,15.86
2018-07-01T06:41:48.013Z,15.81
2018-07-01T06:42:47.959Z,15.93
2018-07-01T06:43:47.926Z,15.85
2018-07-01T06:44:47.917Z,15.94
2018-07-01T06:45:47.886Z,15.92
2018-07-01T06:46:47.879Z,15.89
2018-07-01T06:47:47.864Z,15.94
2018-07-01T06:48:47.809Z,15.94
2018-07-01T06:49:47.817Z,15.88
2018-07-01T06:50:47.790Z,15.94
2018-07-01T06:51:47.741Z,15.93
2018-07-01T06:52:47.743Z,15.92
2018-07-01T06:53:47.694Z,15.93
2018-07-01T06:54:47.668Z,15.93
2018-07-01T06:55:47.673Z,15.94
2018-07-01T06:56:47.627Z,15.89
2018-07-01T06:57:47.609Z,15.99
2018-07-01T06:58:47.604Z,15.97
2018-07-01T06:59:47.554Z,15.94
2018-07-01T07:00:47.535Z,16.03
2018-07-01T07:01:47.511Z,16.01
2018-07-01T07:02:47.508Z,16.03
2018-07-01T07:03:47.486Z,15.94
2018-07-01T07:04:47.435Z,15.92
2018-07-01T07:05:47.415Z,15.88
2018-07-01T07:06:47.416Z,15.85
2018-07-01T07:07:47.403Z,15.86
2018-07-01T07:08:47.353Z,15.82
2018-07-01T07:09:47.316Z,15.86
2018-07-01T07:10:47.300Z,15.92
2018-07-01T07:11:47.287Z,15.94
2018-07-01T07:12:47.255Z,15.97
2018-07-01T07:13:47.231Z,15.86
2018-07-01T07:14:47.198Z,15.92
2018-07-01T07:15:47.177Z,15.86
2018-07-01T07:16:47.164Z,15.86
2018-07-01T07:17:47.134Z,15.82
2018-07-01T07:18:47.107Z,15.88
2018-07-01T07:19:47.094Z,15.92
2018-07-01T07:20:47.063Z,15.93
2018-07-01T07:21:47.040Z,15.92
2018-07-01T07:22:47.021Z,15.93
2018-07-01T07:23:47.019Z,15.94
2018-07-01T07:24:46.968Z,15.99
2018-07-01T07:25:46.970Z,15.89
2018-07-01T07:26:46.922Z,15.96
2018-07-01T07:27:46.899Z,15.97
2018-07-01T07:28:46.872Z,16.01
2018-07-01T07:29:46.873Z,16.06
2018-07-01T07:30:46.862Z,16.01
2018-07-01T07:31:46.802Z,15.97
2018-07-01T07:32:46.787Z,15.94
2018-07-01T07:33:46.759Z,15.94
2018-07-01T07:34:46.734Z,15.93
2018-07-01T07:35:46.707Z,16.00
2018-07-01T07:36:46.713Z,15.89
2018-07-01T07:37:46.667Z,15.93
2018-07-01T07:38:46.640Z,15.96
2018-07-01T07:39:46.648Z,15.99
2018-07-01T07:40:46.594Z,15.92
2018-07-01T07:41:46.596Z,15.93
2018-07-01T07:42:46.553Z,15.96
2018-07-01T07:43:46.551Z,15.99
2018-07-01T07:44:46.546Z,15.96
2018-07-01T07:45:46.473Z,16.01
2018-07-01T07:46:46.483Z,16.06
2018-07-01T07:47:46.457Z,15.99
2018-07-01T07:48:46.410Z,15.94
2018-07-01T07:49:46.405Z,16.00
2018-07-01T07:50:46.363Z,15.94
2018-07-01T07:51:46.418Z,15.99
2018-07-01T07:52:46.394Z,15.99
2018-07-01T07:53:46.350Z,15.96
2018-07-01T07:54:46.336Z,15.94
2018-07-01T07:55:46.298Z,15.97
2018-07-01T07:56:46.272Z,15.93
2018-07-01T07:57:46.273Z,16.00
2018-07-01T07:58:46.227Z,15.89
2018-07-01T07:59:46.230Z,15.92
2018-07-01T08:00:46.188Z,15.88
2018-07-01T08:01:46.128Z,15.94
2018-07-01T08:02:46.105Z,15.94
2018-07-01T08:03:46.059Z,15.96
2018-07-01T08:04:46.056Z,15.92
2018-07-01T08:05:46.032Z,15.92
2018-07-01T08:06:45.980Z,15.94
2018-07-01T08:07:45.965Z,15.99
2018-07-01T08:08:45.940Z,16.00
2018-07-01T08:09:45.942Z,16.03
2018-07-01T08:10:45.891Z,16.00
2018-07-01T08:11:45.881Z,16.03
2018-07-01T08:12:45.917Z,16.00
2018-07-01T08:13:45.832Z,15.96
2018-07-01T08:14:45.823Z,16.03
2018-07-01T08:15:45.798Z,15.99
2018-07-01T08:16:45.749Z,15.97
2018-07-01T08:17:45.727Z,15.96
2018-07-01T08:18:45.720Z,15.86
2018-07-01T08:19:45.674Z,15.82
2018-07-01T08:20:45.654Z,15.82
2018-07-01T08:21:45.656Z,15.76
2018-07-01T08:22:45.607Z,15.81
2018-07-01T08:23:45.586Z,15.85
2018-07-01T08:24:45.561Z,15.82
2018-07-01T08:25:45.564Z,15.84
2018-07-01T08:26:45.509Z,15.74
2018-07-01T08:27:45.521Z,15.72
2018-07-01T08:28:45.464Z,15.79
2018-07-01T08:29:45.472Z,15.74
2018-07-01T08:30:45.445Z,15.79
2018-07-01T08:31:45.398Z,15.76
2018-07-01T08:32:45.377Z,15.78
2018-07-01T08:33:45.352Z,15.75
2018-07-01T08:34:45.342Z,15.76
2018-07-01T08:35:45.311Z,15.75
2018-07-01T08:36:45.281Z,15.85
2018-07-01T08:37:45.280Z,15.78
2018-07-01T08:38:45.239Z,15.82
2018-07-01T08:39:45.210Z,15.82
2018-07-01T08:40:45.183Z,15.82
2018-07-01T08:41:45.169Z,15.85
2018-07-01T08:42:45.147Z,15.82
2018-07-01T08:43:45.115Z,15.81
2018-07-01T08:44:45.101Z,15.81
2018-07-01T08:45:45.097Z,15.72
2018-07-01T08:46:45.044Z,15.72
2018-07-01T08:47:45.055Z,15.76
2018-07-01T08:48:45.027Z,15.76
2018-07-01T08:49:44.969Z,15.75
2018-07-01T08:50:44.979Z,15.76
2018-07-01T08:51:44.934Z,15.68
2018-07-01T08:52:44.939Z,15.72
2018-07-01T08:53:44.873Z,15.78
2018-07-01T08:54:44.857Z,15.79
2018-07-01T08:55:44.826Z,15.76
2018-07-01T08:56:44.836Z,15.75
2018-07-01T08:57:44.809Z,15.76
2018-07-01T08:58:44.769Z,15.75
2018-07-01T08:59:44.748Z,15.70
2018-07-01T09:00:44.715Z,15.67
2018-07-01T09:01:44.722Z,15.66
2018-07-01T09:02:44.668Z,15.67
2018-07-01T09:03:44.671Z,15.75
2018-07-01T09:04:44.626Z,15.70
2018-07-01T09:05:44.608Z,15.63
2018-07-01T09:06:44.576Z,15.72
2018-07-01T09:07:44.564Z,15.63
2018-07-01T09:08:44.588Z,15.68
2018-07-01T09:09:44.511Z,15.67
2018-07-01T09:10:44.477Z,15.63
2018-07-01T09:11:44.459Z,15.68
2018-07-01T09:12:44.434Z,15.66
2018-07-01T09:13:44.424Z,15.61
2018-07-01T09:14:44.385Z,15.75
2018-07-01T09:15:44.355Z,15.70
2018-07-01T09:16:44.366Z,15.67
2018-07-01T09:17:44.311Z,15.70
2018-07-01T09:18:44.296Z,15.68
2018-07-01T09:19:44.261Z,15.61
2018-07-01T09:20:44.270Z,15.67
2018-07-01T09:21:44.244Z,15.70
2018-07-01T09:22:44.197Z,15.63
2018-07-01T09:23:44.185Z,15.61
2018-07-01T09:24:44.157Z,15.66
2018-07-01T09:25:44.152Z,15.61
2018-07-01T09:26:44.107Z,15.70
2018-07-01T09:27:44.089Z,15.67
2018-07-01T09:28:44.061Z,15.63
2018-07-01T09:29:44.061Z,15.66
2018-07-01T09:30:44.010Z,15.61
2018-07-01T09:31:43.982Z,15.64
2018-07-01T09:32:43.985Z,15.68
2018-07-01T09:33:43.967Z,15.72
2018-07-01T09:34:43.947Z,15.74
2018-07-01T09:35:43.897Z,15.68
2018-07-01T09:36:43.868Z,15.72
2018-07-01T09:37:43.843Z,15.74
2018-07-01T09:38:43.816Z,15.74
2018-07-01T09:39:43.796Z,15.75
2018-07-01T09:40:43.773Z,15.76
2018-07-01T09:41:43.748Z,15.78
2018-07-01T09:42:43.755Z,15.70
2018-07-01T09:43:43.732Z,15.68
2018-07-01T09:44:43.707Z,15.60
2018-07-01T09:45:43.655Z,15.59
2018-07-01T09:46:43.637Z,15.59
2018-07-01T09:47:43.609Z,15.61
2018-07-01T09:48:43.593Z,15.68
2018-07-01T09:49:43.570Z,15.68
2018-07-01T09:50:43.741Z,15.66
2018-07-01T09:51:43.512Z,15.74
2018-07-01T09:52:43.513Z,15.68
2018-07-01T09:53:43.471Z,15.76
2018-07-01T09:54:43.439Z,15.72
2018-07-01T09:55:43.417Z,15.70
2018-07-01T09:56:43.408Z,15.68
2018-07-01T09:57:43.383Z,15.76
2018-07-01T09:58:43.343Z,15.74
2018-07-01T09:59:43.352Z,15.76
2018-07-01T10:00:43.295Z,15.75
2018-07-01T10:01:43.272Z,15.74
2018-07-01T10:02:43.255Z,15.76
2018-07-01T10:03:43.258Z,15.79
2018-07-01T10:04:43.205Z,15.86
2018-07-01T10:05:43.183Z,15.89
2018-07-01T10:06:43.157Z,15.86
2018-07-01T10:07:43.138Z,15.86
2018-07-01T10:08:43.109Z,15.93
2018-07-01T10:09:43.115Z,15.96
2018-07-01T10:10:43.095Z,15.96
2018-07-01T10:11:43.040Z,15.96
2018-07-01T10:12:43.014Z,15.94
2018-07-01T10:13:43.000Z,16.04
2018-07-01T10:14:42.998Z,15.97
2018-07-01T10:15:42.959Z,16.04
2018-07-01T10:16:42.934Z,16.04
2018-07-01T10:17:42.901Z,16.12
2018-07-01T10:18:42.937Z,16.06
2018-07-01T10:19:42.849Z,16.20
2018-07-01T10:20:42.833Z,16.15
2018-07-01T10:21:42.836Z,16.20
2018-07-01T10:22:42.787Z,16.25
2018-07-01T10:23:42.773Z,16.35
2018-07-01T10:24:42.737Z,16.44
2018-07-01T10:25:42.740Z,16.48
2018-07-01T10:26:42.696Z,16.50
2018-07-01T10:27:42.680Z,16.56
2018-07-01T10:28:42.652Z,16.60
2018-07-01T10:29:42.619Z,16.63
2018-07-01T10:30:42.627Z,16.67
2018-07-01T10:31:42.578Z,16.74
2018-07-01T10:32:42.554Z,16.80
2018-07-01T10:33:42.560Z,16.92
2018-07-01T10:34:42.536Z,16.88
2018-07-01T10:35:42.490Z,16.96
2018-07-01T10:36:42.491Z,17.10
2018-07-01T10:37:42.444Z,17.23
2018-07-01T10:38:42.419Z,17.33
2018-07-01T10:39:42.396Z,17.40
2018-07-01T10:40:42.402Z,17.44
2018-07-01T10:41:42.354Z,17.55
2018-07-01T10:42:42.336Z,17.79
2018-07-01T10:43:42.319Z,17.79
2018-07-01T10:44:42.292Z,17.94
2018-07-01T10:45:42.303Z,17.92
2018-07-01T10:46:42.270Z,18.07
2018-07-01T10:47:42.247Z,18.04
2018-07-01T10:48:42.205Z,18.10
2018-07-01T10:49:42.274Z,18.12
2018-07-01T10:50:42.187Z,18.24
2018-07-01T10:51:42.160Z,18.19
2018-07-01T10:52:42.139Z,18.44
2018-07-01T10:53:42.116Z,18.52
2018-07-01T10:54:42.097Z,18.50
2018-07-01T10:55:42.066Z,18.58
2018-07-01T10:56:42.028Z,18.65
2018-07-01T10:57:42.072Z,18.77
2018-07-01T10:58:41.990Z,18.90
2018-07-01T10:59:41.993Z,18.83
2018-07-01T11:00:41.954Z,18.99
2018-07-01T11:01:41.947Z,18.91
2018-07-01T11:02:41.900Z,18.94
2018-07-01T11:03:41.907Z,19.08
2018-07-01T11:04:41.856Z,19.28
2018-07-01T11:05:41.861Z,19.38
2018-07-01T11:06:41.812Z,19.61
2018-07-01T11:07:41.790Z,19.61
2018-07-01T11:08:41.779Z,19.70
2018-07-01T11:09:41.778Z,19.48
2018-07-01T11:10:41.743Z,19.57
2018-07-01T11:11:41.777Z,19.65
2018-07-01T11:12:41.690Z,19.65
2018-07-01T11:13:41.683Z,19.69
2018-07-01T11:14:41.663Z,19.87
2018-07-01T11:15:41.626Z,19.86
2018-07-01T11:16:41.638Z,19.98
2018-07-01T11:17:41.596Z,19.88
2018-07-01T11:18:41.570Z,19.94
2018-07-01T11:19:41.558Z,19.86
2018-07-01T11:20:41.554Z,19.83
2018-07-01T11:21:41.538Z,19.69
2018-07-01T11:22:41.484Z,19.47
2018-07-01T11:23:41.499Z,19.46
2018-07-01T11:24:41.447Z,19.51
2018-07-01T11:25:41.434Z,19.58
2018-07-01T11:26:41.532Z,19.65
2018-07-01T11:27:41.458Z,19.80
2018-07-01T11:28:41.379Z,19.84
2018-07-01T11:29:41.353Z,20.03
2018-07-01T11:30:41.361Z,20.20
2018-07-01T11:31:41.320Z,20.31
2018-07-01T11:32:41.370Z,20.30
2018-07-01T11:33:41.302Z,20.42
2018-07-01T11:34:41.265Z,20.30
2018-07-01T11:35:41.245Z,20.42
2018-07-01T11:36:41.251Z,20.50
2018-07-01T11:37:41.199Z,20.68
2018-07-01T11:38:41.181Z,20.65
2018-07-01T11:39:41.177Z,20.81
2018-07-01T11:40:41.146Z,20.83
2018-07-01T11:41:41.144Z,21.14
2018-07-01T11:42:41.193Z,21.35
2018-07-01T11:43:41.120Z,21.45
2018-07-01T11:44:41.177Z,21.44
2018-07-01T11:45:41.083Z,21.64
2018-07-01T11:46:41.060Z,21.76
2018-07-01T11:47:41.026Z,22.17
2018-07-01T11:48:41.022Z,22.50
2018-07-01T11:49:40.973Z,22.13
2018-07-01T11:50:40.987Z,21.67
2018-07-01T11:51:40.959Z,21.64
2018-07-01T11:52:40.955Z,21.39
2018-07-01T11:53:40.907Z,21.24
2018-07-01T11:54:40.888Z,21.23
2018-07-01T11:55:40.886Z,21.56
2018-07-01T11:56:40.859Z,21.98
2018-07-01T11:57:40.843Z,22.39
2018-07-01T11:58:40.824Z,22.67
2018-07-01T11:59:40.832Z,22.62
2018-07-01T12:00:40.801Z,22.10
2018-07-01T12:01:40.774Z,22.19
2018-07-01T12:02:40.769Z,22.29
2018-07-01T12:03:40.739Z,22.16
2018-07-01T12:05:02.950Z,22.41
2018-07-01T12:05:40.736Z,22.57
2018-07-01T12:06:40.689Z,22.65
2018-07-01T12:07:40.668Z,22.47
2018-07-01T12:08:40.660Z,22.50
2018-07-01T12:09:40.653Z,22.50
2018-07-01T12:10:40.629Z,22.50
2018-07-01T12:11:40.632Z,22.67
2018-07-01T12:12:40.596Z,22.17
2018-07-01T12:13:40.573Z,22.35
2018-07-01T12:14:40.585Z,22.56
2018-07-01T12:15:40.566Z,22.16
2018-07-01T12:16:40.548Z,21.78
2018-07-01T12:17:40.533Z,21.78
2018-07-01T12:18:40.521Z,21.71
2018-07-01T12:19:40.490Z,21.75
2018-07-01T12:20:40.488Z,21.79
2018-07-01T12:21:40.453Z,22.12
2018-07-01T12:22:40.430Z,22.32
2018-07-01T12:23:40.554Z,22.69
2018-07-01T12:24:40.394Z,22.78
2018-07-01T12:25:40.383Z,22.77
2018-07-01T12:26:40.375Z,22.83
2018-07-01T12:27:40.356Z,22.53
2018-07-01T12:28:40.348Z,22.38
2018-07-01T12:29:40.330Z,22.12
2018-07-01T12:30:40.298Z,21.85
2018-07-01T12:31:40.293Z,22.12
2018-07-01T12:32:40.284Z,21.95
2018-07-01T12:33:40.269Z,21.88
2018-07-01T12:34:40.325Z,22.16
2018-07-01T12:35:40.250Z,22.46
2018-07-01T12:36:40.239Z,22.82
2018-07-01T12:37:40.219Z,23.14
2018-07-01T12:38:40.172Z,23.34
2018-07-01T12:39:40.157Z,23.39
2018-07-01T12:40:40.169Z,23.31
2018-07-01T12:41:40.155Z,23.39
2018-07-01T12:42:40.143Z,23.45
2018-07-01T12:43:40.131Z,23.61
2018-07-01T12:44:40.092Z,23.71
2018-07-01T12:45:40.071Z,23.62
2018-07-01T12:46:40.059Z,23.55
2018-07-01T12:47:40.042Z,23.55
2018-07-01T12:48:40.026Z,23.43
2018-07-01T12:49:40.013Z,23.07
2018-07-01T12:50:39.996Z,23.01
2018-07-01T12:51:39.977Z,22.87
2018-07-01T12:52:39.965Z,22.82